createdAt,value
2023-05-09T00:00:53.600Z,7.83
2023-05-09T00:04:21.406Z,7.79
2023-05-09T00:07:48.810Z,7.79
2023-05-09T00:11:16.499Z,7.83
2023-05-09T00:14:44.037Z,7.85
2023-05-09T00:18:11.647Z,7.89
2023-05-09T00:21:39.237Z,7.93
2023-05-09T00:25:06.813Z,7.95
2023-05-09T00:28:16.557Z,7.98
2023-05-09T00:31:40.326Z,8.00
2023-05-09T00:35:07.989Z,7.98
2023-05-09T00:38:19.365Z,7.99
2023-05-09T00:41:42.288Z,8.00
2023-05-09T00:45:09.877Z,8.00
2023-05-09T00:48:37.421Z,8.03
2023-05-09T00:52:04.909Z,8.01
2023-05-09T00:55:13.627Z,8.00
2023-05-09T00:58:41.097Z,8.07
2023-05-09T01:01:50.498Z,8.12
2023-05-09T01:05:17.999Z,8.15
2023-05-09T01:08:08.261Z,8.20
2023-05-09T01:11:35.926Z,8.24
2023-05-09T01:15:03.486Z,8.22
2023-05-09T01:17:53.519Z,8.19
2023-05-09T01:21:20.987Z,8.14
2023-05-09T01:24:29.548Z,8.08
2023-05-09T01:27:57.362Z,7.98
2023-05-09T01:31:06.089Z,7.90
2023-05-09T01:34:14.924Z,7.83
2023-05-09T01:37:42.440Z,7.78
2023-05-09T01:41:09.936Z,7.74
2023-05-09T01:44:37.552Z,7.70
2023-05-09T01:48:05.330Z,7.67
2023-05-09T01:51:33.080Z,7.64
2023-05-09T01:55:00.743Z,7.67
2023-05-09T01:58:28.437Z,7.68
2023-05-09T02:01:36.899Z,7.70
2023-05-09T02:05:04.516Z,7.70
2023-05-09T02:08:13.585Z,7.74
2023-05-09T02:11:22.145Z,7.77
2023-05-09T02:14:37.838Z,7.85
2023-05-09T02:17:27.174Z,7.86
2023-05-09T02:20:32.993Z,7.85
2023-05-09T02:24:00.613Z,7.85
2023-05-09T02:27:28.183Z,7.93
2023-05-09T02:30:55.674Z,8.01
2023-05-09T02:34:23.098Z,8.14
2023-05-09T02:37:50.689Z,8.22
2023-05-09T02:41:18.301Z,8.21
2023-05-09T02:44:45.786Z,8.18
2023-05-09T02:47:54.645Z,8.18
2023-05-09T02:51:21.988Z,8.18
2023-05-09T02:54:49.813Z,8.18
2023-05-09T02:58:17.373Z,8.12
2023-05-09T03:01:44.891Z,8.10
2023-05-09T03:04:54.848Z,8.09
2023-05-09T03:08:22.461Z,8.07
2023-05-09T03:11:34.642Z,8.06
2023-05-09T03:14:27.568Z,8.04
2023-05-09T03:17:33.557Z,7.98
2023-05-09T03:21:01.156Z,7.93
2023-05-09T03:24:11.176Z,7.88
2023-05-09T03:26:59.544Z,7.84
2023-05-09T03:29:52.501Z,7.85
2023-05-09T03:33:20.005Z,7.87
2023-05-09T03:35:51.540Z,7.87
2023-05-09T03:39:01.145Z,7.89
2023-05-09T03:42:28.624Z,7.90
2023-05-09T03:45:36.290Z,7.93
2023-05-09T03:48:25.879Z,7.96
2023-05-09T03:51:16.685Z,8.01
2023-05-09T03:54:07.460Z,8.06
2023-05-09T03:57:35.183Z,8.16
2023-05-09T04:00:59.062Z,8.23
2023-05-09T04:04:27.898Z,8.30
2023-05-09T04:07:23.610Z,8.37
2023-05-09T04:10:51.238Z,8.44
2023-05-09T04:13:42.220Z,8.51
2023-05-09T04:17:09.834Z,8.59
2023-05-09T04:20:21.688Z,8.66
2023-05-09T04:23:21.858Z,8.73
2023-05-09T04:26:31.043Z,8.82
2023-05-09T04:29:58.683Z,8.98
2023-05-09T04:33:07.896Z,9.13
2023-05-09T04:36:35.407Z,9.33
2023-05-09T04:39:43.736Z,9.52
2023-05-09T04:43:11.182Z,9.77
2023-05-09T04:46:39.824Z,10.00
2023-05-09T04:50:08.034Z,10.25
2023-05-09T04:53:35.882Z,10.46
2023-05-09T04:56:34.706Z,10.64
2023-05-09T04:59:19.779Z,10.82
2023-05-09T05:02:28.578Z,10.95
2023-05-09T05:05:56.270Z,11.01
2023-05-09T05:09:04.742Z,11.09
2023-05-09T05:12:14.219Z,11.14
2023-05-09T05:15:41.833Z,11.15
2023-05-09T05:18:50.658Z,11.19
2023-05-09T05:21:51.058Z,11.19
2023-05-09T05:24:47.653Z,11.27
2023-05-09T05:27:36.099Z,11.40
2023-05-09T05:30:44.931Z,11.49
2023-05-09T05:33:35.535Z,11.66
2023-05-09T05:36:32.717Z,11.81
2023-05-09T05:39:44.791Z,11.87
2023-05-09T05:43:12.868Z,11.95
2023-05-09T05:46:36.034Z,12.09
2023-05-09T05:50:05.297Z,12.21
2023-05-09T05:53:14.190Z,12.32
2023-05-09T05:56:29.705Z,12.41
2023-05-09T05:59:18.139Z,12.49
2023-05-09T06:02:07.185Z,12.55
2023-05-09T06:04:47.902Z,12.61
2023-05-09T06:07:43.510Z,12.81
2023-05-09T06:11:11.586Z,12.99
2023-05-09T06:14:02.079Z,13.19
2023-05-09T06:16:34.450Z,13.36
2023-05-09T06:19:20.538Z,13.53
2023-05-09T06:21:49.156Z,13.59
2023-05-09T06:24:48.207Z,13.68
2023-05-09T06:28:15.746Z,13.68
2023-05-09T06:31:04.859Z,13.71
2023-05-09T06:34:32.545Z,13.80
2023-05-09T06:37:04.149Z,13.94
2023-05-09T06:40:31.951Z,14.10
2023-05-09T06:43:40.768Z,14.18
2023-05-09T06:47:08.469Z,14.30
2023-05-09T06:49:58.966Z,14.32
2023-05-09T06:53:12.376Z,14.35
2023-05-09T06:56:22.257Z,14.42
2023-05-09T06:59:49.940Z,14.42
2023-05-09T07:02:58.466Z,14.55
2023-05-09T07:05:45.801Z,14.60
2023-05-09T07:08:18.950Z,14.72
2023-05-09T07:11:08.010Z,14.83
2023-05-09T07:14:00.403Z,14.86
2023-05-09T07:17:21.315Z,14.90
2023-05-09T07:20:08.286Z,14.90
2023-05-09T07:22:58.427Z,14.98
2023-05-09T07:26:25.947Z,15.06
2023-05-09T07:29:35.443Z,15.13
2023-05-09T07:32:58.237Z,15.15
2023-05-09T07:36:25.732Z,15.19
2023-05-09T07:39:53.400Z,15.27
2023-05-09T07:43:20.851Z,15.43
2023-05-09T07:46:30.680Z,15.54
2023-05-09T07:49:58.468Z,15.61
2023-05-09T07:53:26.214Z,15.77
2023-05-09T07:56:53.906Z,15.82
2023-05-09T08:00:09.549Z,15.82
2023-05-09T08:03:37.395Z,15.95
2023-05-09T08:07:04.792Z,16.07
2023-05-09T08:10:32.407Z,16.21
2023-05-09T08:13:37.791Z,16.27
2023-05-09T08:16:07.803Z,16.29
2023-05-09T08:18:41.309Z,16.24
2023-05-09T08:21:31.304Z,16.11
2023-05-09T08:24:02.757Z,15.97
2023-05-09T08:27:00.278Z,15.82
2023-05-09T08:30:07.804Z,15.76
2023-05-09T08:33:36.425Z,15.59
2023-05-09T08:36:04.622Z,15.46
2023-05-09T08:39:32.604Z,15.40
2023-05-09T08:42:22.994Z,15.42
2023-05-09T08:45:10.355Z,15.40
2023-05-09T08:47:47.063Z,15.37
2023-05-09T08:51:15.245Z,15.55
2023-05-09T08:54:42.947Z,15.74
2023-05-09T08:57:51.103Z,16.03
2023-05-09T09:01:06.673Z,16.30
2023-05-09T09:04:34.580Z,16.65
2023-05-09T09:07:44.126Z,16.94
2023-05-09T09:10:55.740Z,17.12
2023-05-09T09:14:23.501Z,17.26
2023-05-09T09:17:51.077Z,17.30
2023-05-09T09:21:18.480Z,17.65
2023-05-09T09:24:28.167Z,17.97
2023-05-09T09:27:24.996Z,17.84
2023-05-09T09:30:52.515Z,17.84
2023-05-09T09:34:20.113Z,17.66
2023-05-09T09:37:47.689Z,17.55
2023-05-09T09:40:56.462Z,17.47
2023-05-09T09:44:24.619Z,17.47
2023-05-09T09:47:52.211Z,17.76
2023-05-09T09:51:19.966Z,17.88
2023-05-09T09:54:47.522Z,18.17
2023-05-09T09:58:14.976Z,18.45
2023-05-09T10:01:43.039Z,18.73
2023-05-09T10:05:10.539Z,18.97
2023-05-09T10:08:03.005Z,19.24
2023-05-09T10:11:30.517Z,19.40
2023-05-09T10:14:58.376Z,19.49
2023-05-09T10:18:08.038Z,19.45
2023-05-09T10:20:58.128Z,19.43
2023-05-09T10:24:25.768Z,19.47
2023-05-09T10:27:53.519Z,19.39
2023-05-09T10:31:02.182Z,19.09
2023-05-09T10:34:29.981Z,18.98
2023-05-09T10:37:38.809Z,18.88
2023-05-09T10:41:06.360Z,18.81
2023-05-09T10:44:14.988Z,18.65
2023-05-09T10:47:30.890Z,18.77
2023-05-09T10:50:41.716Z,19.38
2023-05-09T10:54:05.873Z,19.85
2023-05-09T10:57:33.482Z,19.83
2023-05-09T11:01:01.228Z,19.95
2023-05-09T11:04:10.760Z,19.96
2023-05-09T11:07:38.207Z,19.90
2023-05-09T11:11:01.875Z,19.74
2023-05-09T11:14:29.765Z,19.66
2023-05-09T11:17:57.554Z,19.72
2023-05-09T11:21:24.956Z,19.93
2023-05-09T11:24:52.575Z,20.02
2023-05-09T11:28:20.224Z,20.17
2023-05-09T11:31:36.884Z,20.22
2023-05-09T11:34:52.084Z,20.21
2023-05-09T11:38:00.851Z,20.23
2023-05-09T11:41:28.558Z,20.71
2023-05-09T11:44:56.069Z,21.32
2023-05-09T11:48:19.868Z,21.56
2023-05-09T11:51:28.504Z,21.42
2023-05-09T11:54:36.963Z,21.29
2023-05-09T11:58:04.403Z,21.01
2023-05-09T12:00:50.723Z,20.74
2023-05-09T12:04:18.429Z,20.44
2023-05-09T12:07:30.076Z,21.03
2023-05-09T12:10:57.745Z,21.79
2023-05-09T12:14:09.326Z,22.31
2023-05-09T12:17:36.899Z,22.52
2023-05-09T12:20:45.425Z,22.63
2023-05-09T12:23:54.168Z,22.51
2023-05-09T12:26:43.473Z,22.46
2023-05-09T12:30:11.159Z,22.86
2023-05-09T12:33:14.322Z,23.11
2023-05-09T12:36:24.882Z,23.40
2023-05-09T12:39:52.784Z,23.60
2023-05-09T12:43:08.382Z,23.52
2023-05-09T12:46:37.410Z,23.38
2023-05-09T12:50:03.802Z,22.89
2023-05-09T12:53:31.749Z,22.56
2023-05-09T12:56:59.659Z,22.21
2023-05-09T13:00:27.439Z,21.78
2023-05-09T13:03:55.210Z,21.45
2023-05-09T13:07:23.044Z,21.24
2023-05-09T13:10:55.504Z,21.09
2023-05-09T13:14:18.546Z,21.01
2023-05-09T13:17:46.535Z,21.11
2023-05-09T13:20:54.255Z,20.95
2023-05-09T13:24:22.019Z,20.62
2023-05-09T13:27:49.935Z,20.31
2023-05-09T13:30:58.935Z,20.05
2023-05-09T13:34:26.538Z,19.58
2023-05-09T13:37:54.356Z,19.24
2023-05-09T13:41:22.189Z,18.86
2023-05-09T13:44:49.885Z,18.52
2023-05-09T13:47:58.741Z,18.18
2023-05-09T13:51:14.724Z,17.85
2023-05-09T13:54:42.536Z,17.58
2023-05-09T13:57:34.188Z,17.30
2023-05-09T14:00:42.910Z,17.24
2023-05-09T14:04:10.610Z,17.09
2023-05-09T14:07:38.326Z,16.87
2023-05-09T14:10:47.039Z,16.84
2023-05-09T14:14:14.909Z,16.73
2023-05-09T14:17:42.594Z,16.63
2023-05-09T14:20:50.175Z,16.59
2023-05-09T14:23:59.071Z,16.53
2023-05-09T14:27:07.746Z,16.51
2023-05-09T14:30:35.686Z,16.45
2023-05-09T14:34:03.560Z,16.34
2023-05-09T14:37:32.039Z,16.12
2023-05-09T14:40:40.683Z,16.06
2023-05-09T14:44:08.627Z,15.98
2023-05-09T14:47:37.474Z,15.96
2023-05-09T14:50:47.098Z,15.94
2023-05-09T14:53:52.280Z,15.95
2023-05-09T14:56:41.895Z,15.92
2023-05-09T15:00:20.431Z,15.96
2023-05-09T15:03:37.919Z,16.00
2023-05-09T15:07:05.549Z,15.95
2023-05-09T15:10:33.402Z,15.81
2023-05-09T15:14:01.082Z,15.76
2023-05-09T15:17:28.848Z,15.72
2023-05-09T15:20:56.672Z,15.71
2023-05-09T15:24:24.649Z,15.70
2023-05-09T15:27:52.445Z,15.68
2023-05-09T15:31:02.205Z,15.73
2023-05-09T15:34:29.756Z,15.74
2023-05-09T15:37:57.509Z,15.76
2023-05-09T15:41:25.342Z,15.80
2023-05-09T15:44:35.076Z,15.84
2023-05-09T15:48:02.832Z,15.86
2023-05-09T15:51:30.742Z,15.85
2023-05-09T15:54:58.413Z,15.91
2023-05-09T15:58:06.382Z,15.98
2023-05-09T16:01:14.730Z,16.04
2023-05-09T16:04:42.485Z,16.08
2023-05-09T16:08:10.327Z,16.14
2023-05-09T16:11:37.936Z,16.19
2023-05-09T16:14:47.665Z,16.23
2023-05-09T16:18:15.396Z,16.27
2023-05-09T16:21:25.260Z,16.31
2023-05-09T16:24:33.952Z,16.32
2023-05-09T16:28:01.806Z,16.31
2023-05-09T16:31:10.442Z,16.26
2023-05-09T16:34:38.234Z,16.27
2023-05-09T16:37:54.799Z,16.29
2023-05-09T16:41:03.600Z,16.27
2023-05-09T16:44:31.405Z,16.21
2023-05-09T16:48:01.998Z,16.16
2023-05-09T16:51:26.973Z,16.08
2023-05-09T16:54:55.478Z,15.98
2023-05-09T16:57:44.196Z,15.92
2023-05-09T17:01:12.068Z,15.84
2023-05-09T17:04:03.972Z,15.79
2023-05-09T17:07:31.738Z,15.71
2023-05-09T17:10:42.017Z,15.68
2023-05-09T17:14:07.715Z,15.62
2023-05-09T17:17:35.915Z,15.51
2023-05-09T17:21:03.789Z,15.43
2023-05-09T17:24:31.372Z,15.34
2023-05-09T17:27:41.142Z,15.27
2023-05-09T17:30:49.886Z,15.18
2023-05-09T17:33:58.690Z,15.15
2023-05-09T17:37:07.552Z,15.04
2023-05-09T17:40:35.382Z,14.93
2023-05-09T17:44:03.906Z,14.83
2023-05-09T17:47:32.031Z,14.76
2023-05-09T17:50:42.326Z,14.68
2023-05-09T17:53:51.873Z,14.63
2023-05-09T17:57:19.660Z,14.54
2023-05-09T18:00:47.358Z,14.48
2023-05-09T18:03:17.337Z,14.42
2023-05-09T18:06:42.232Z,14.29
2023-05-09T18:10:10.151Z,14.17
2023-05-09T18:13:37.872Z,14.06
2023-05-09T18:17:06.621Z,13.91
2023-05-09T18:20:34.688Z,13.80
2023-05-09T18:23:43.739Z,13.70
2023-05-09T18:27:11.720Z,13.60
2023-05-09T18:30:19.989Z,13.50
2023-05-09T18:33:47.801Z,13.39
2023-05-09T18:37:15.578Z,13.26
2023-05-09T18:40:43.234Z,13.14
2023-05-09T18:44:11.050Z,13.05
2023-05-09T18:47:38.988Z,12.95
2023-05-09T18:51:06.663Z,12.86
2023-05-09T18:54:34.512Z,12.77
2023-05-09T18:58:02.227Z,12.72
2023-05-09T19:01:30.177Z,12.64
2023-05-09T19:04:39.190Z,12.56
2023-05-09T19:08:06.869Z,12.52
2023-05-09T19:11:34.623Z,12.46
2023-05-09T19:15:02.430Z,12.43
2023-05-09T19:18:30.420Z,12.36
2023-05-09T19:21:58.259Z,12.33
2023-05-09T19:25:06.571Z,12.33
2023-05-09T19:28:35.500Z,12.29
2023-05-09T19:32:02.243Z,12.25
2023-05-09T19:35:30.487Z,12.19
2023-05-09T19:38:58.348Z,12.15
2023-05-09T19:42:26.011Z,12.13
2023-05-09T19:45:53.967Z,12.09
2023-05-09T19:49:03.889Z,12.03
2023-05-09T19:52:31.663Z,12.00
2023-05-09T19:55:59.761Z,11.98
2023-05-09T19:58:49.995Z,11.98
2023-05-09T20:01:59.999Z,11.97
2023-05-09T20:05:27.797Z,11.96
2023-05-09T20:08:22.335Z,11.92
2023-05-09T20:11:50.029Z,11.89
2023-05-09T20:15:14.116Z,11.81
2023-05-09T20:18:41.942Z,11.78
2023-05-09T20:22:09.804Z,11.76
2023-05-09T20:25:37.598Z,11.74
2023-05-09T20:29:05.278Z,11.70
2023-05-09T20:32:32.964Z,11.71
2023-05-09T20:36:00.749Z,11.72
2023-05-09T20:39:11.558Z,11.72
2023-05-09T20:42:37.642Z,11.71
2023-05-09T20:46:05.273Z,11.69
2023-05-09T20:49:33.315Z,11.67
2023-05-09T20:53:01.158Z,11.71
2023-05-09T20:56:29.117Z,11.67
2023-05-09T20:59:57.196Z,11.63
2023-05-09T21:03:25.686Z,11.63
2023-05-09T21:06:53.639Z,11.64
2023-05-09T21:10:21.536Z,11.62
2023-05-09T21:13:49.506Z,11.59
2023-05-09T21:17:17.480Z,11.52
2023-05-09T21:20:41.625Z,11.48
2023-05-09T21:24:10.279Z,11.46
2023-05-09T21:27:38.043Z,11.41
2023-05-09T21:31:06.029Z,11.38
2023-05-09T21:34:33.545Z,11.34
2023-05-09T21:37:44.908Z,11.28
2023-05-09T21:41:12.759Z,11.23
2023-05-09T21:44:01.729Z,11.21
2023-05-09T21:47:30.207Z,11.19
2023-05-09T21:50:57.813Z,11.13
2023-05-09T21:54:13.456Z,11.09
2023-05-09T21:57:23.814Z,11.03
2023-05-09T22:00:51.656Z,10.97
2023-05-09T22:04:19.415Z,10.88
2023-05-09T22:07:47.968Z,10.81
2023-05-09T22:11:15.766Z,10.72
2023-05-09T22:14:53.026Z,10.63
2023-05-09T22:18:11.314Z,10.53
2023-05-09T22:21:39.291Z,10.50
2023-05-09T22:24:29.889Z,10.48
2023-05-09T22:27:19.135Z,10.46
2023-05-09T22:30:28.810Z,10.44
2023-05-09T22:33:37.694Z,10.41
2023-05-09T22:36:46.570Z,10.37
2023-05-09T22:40:14.608Z,10.31
2023-05-09T22:43:43.150Z,10.27
2023-05-09T22:46:53.126Z,10.23
2023-05-09T22:50:20.701Z,10.20
2023-05-09T22:53:29.595Z,10.17
2023-05-09T22:56:58.392Z,10.16
2023-05-09T23:00:25.918Z,10.15
2023-05-09T23:03:54.937Z,10.15
2023-05-09T23:07:22.707Z,10.13
2023-05-09T23:10:12.023Z,10.10
2023-05-09T23:13:39.773Z,10.06
2023-05-09T23:16:30.358Z,10.03
2023-05-09T23:19:21.808Z,10.01
2023-05-09T23:22:49.267Z,9.96
2023-05-09T23:26:17.056Z,9.93
2023-05-09T23:29:25.479Z,9.88
2023-05-09T23:32:53.248Z,9.82
2023-05-09T23:36:00.946Z,9.76
2023-05-09T23:39:28.779Z,9.70
2023-05-09T23:42:57.532Z,9.64
2023-05-09T23:46:26.728Z,9.58
2023-05-09T23:49:54.510Z,9.55
2023-05-09T23:53:03.239Z,9.51
2023-05-09T23:56:31.058Z,9.47
2023-05-09T23:59:58.878Z,9.45
